Time;durP1;ratioP1;P1;durP2;ratioP2;P2;SDS_P1;SDS_P2;PMS_P1;PMS_P2;Temp;Humidity;BMP_temperature;BMP_pressure;BME280_temperature;BME280_humidity;BME280_pressure;Samples;Min_cycle;Max_cycle;Signal;HPM_P1;HPM_P2
2021/11/02 00:01:06;;;;;;;14.90;3.85;;;7.20;99.90;;;;;;5053018;28;20386;-67
2021/11/02 00:03:32;;;;;;;16.80;3.75;;;7.30;99.90;;;;;;5053410;28;20025;-64
2021/11/02 00:05:58;;;;;;;8.98;3.28;;;7.30;99.90;;;;;;5053692;28;20108;-65
2021/11/02 00:08:23;;;;;;;8.23;3.47;;;7.40;99.90;;;;;;5053657;28;20053;-65
2021/11/02 00:10:49;;;;;;;9.00;3.53;;;7.50;99.90;;;;;;5053384;28;20067;-63
2021/11/02 00:13:16;;;;;;;9.30;3.25;;;7.50;99.90;;;;;;5052460;28;20029;-65
2021/11/02 00:15:44;;;;;;;10.98;3.53;;;7.60;99.90;;;;;;5053850;28;20447;-65
2021/11/02 00:18:10;;;;;;;8.82;3.47;;;7.60;99.90;;;;;;5053562;28;20025;-65
2021/11/02 00:20:37;;;;;;;8.68;3.40;;;7.70;99.90;;;;;;5053560;28;20040;-66
2021/11/02 00:23:05;;;;;;;9.05;3.42;;;7.70;99.90;;;;;;5053501;28;20069;-65
2021/11/02 00:25:31;;;;;;;6.40;3.20;;;7.70;99.90;;;;;;5053220;28;20368;-66
2021/11/02 00:28:01;;;;;;;9.70;3.15;;;7.70;99.90;;;;;;5052294;28;20036;-66
2021/11/02 00:30:26;;;;;;;8.70;3.47;;;7.80;99.90;;;;;;5053644;28;20056;-65
2021/11/02 00:32:55;;;;;;;9.85;3.03;;;7.80;99.90;;;;;;5051928;28;20067;-65
2021/11/02 00:35:21;;;;;;;7.50;3.10;;;7.90;99.90;;;;;;5052284;28;20478;-66
2021/11/02 00:37:47;;;;;;;11.80;3.22;;;7.90;99.90;;;;;;5035441;28;20032;-66
2021/11/02 00:40:15;;;;;;;13.85;3.28;;;8.00;99.90;;;;;;5052218;28;20029;-65
2021/11/02 00:42:50;;;;;;;13.45;3.10;;;8.00;99.90;;;;;;5053065;28;20121;-66
2021/11/02 00:45:26;;;;;;;10.00;3.15;;;8.10;99.90;;;;;;5052633;28;20025;-66
2021/11/02 00:47:52;;;;;;;10.30;2.80;;;8.10;99.90;;;;;;5053291;28;20475;-66
2021/11/02 00:50:17;;;;;;;6.35;2.67;;;8.10;99.90;;;;;;5052048;28;20036;-66
2021/11/02 00:52:43;;;;;;;5.18;2.50;;;8.10;99.90;;;;;;5053247;28;20486;-66
2021/11/02 00:55:09;;;;;;;11.57;2.75;;;8.10;99.90;;;;;;5052046;28;20466;-66
2021/11/02 00:57:35;;;;;;;6.00;2.53;;;8.20;99.90;;;;;;5055194;28;20053;-66
2021/11/02 01:00:02;;;;;;;8.00;2.63;;;8.20;99.90;;;;;;5055811;28;20063;-66
2021/11/02 01:02:27;;;;;;;6.85;2.60;;;8.20;99.90;;;;;;5057215;28;20493;-66
2021/11/02 01:04:53;;;;;;;9.45;2.80;;;8.20;99.90;;;;;;5057179;28;20017;-66
2021/11/02 01:07:18;;;;;;;9.82;2.58;;;8.20;99.90;;;;;;5057089;28;20025;-66
2021/11/02 01:09:44;;;;;;;10.32;2.70;;;8.30;99.90;;;;;;5056907;28;20025;-65
2021/11/02 01:12:11;;;;;;;9.07;2.95;;;8.30;99.90;;;;;;5056747;28;20025;-66
2021/11/02 01:14:38;;;;;;;6.47;2.70;;;8.30;99.90;;;;;;5055554;28;20092;-67
2021/11/02 01:17:04;;;;;;;8.05;2.28;;;8.40;99.90;;;;;;5055260;28;20024;-66
2021/11/02 01:19:29;;;;;;;5.00;2.13;;;8.40;99.90;;;;;;5057203;28;20378;-66
2021/11/02 01:21:55;;;;;;;5.05;2.35;;;8.40;99.90;;;;;;5056870;28;20025;-66
2021/11/02 01:24:21;;;;;;;9.02;2.58;;;8.40;99.90;;;;;;5056798;28;20476;-66
2021/11/02 01:26:47;;;;;;;12.10;2.92;;;8.40;99.90;;;;;;5054961;28;20044;-66
2021/11/02 01:29:15;;;;;;;11.93;2.70;;;8.40;99.90;;;;;;5055499;28;20032;-66
2021/11/02 01:31:42;;;;;;;5.43;2.58;;;8.40;99.90;;;;;;5056608;28;20025;-66
2021/11/02 01:34:08;;;;;;;6.57;2.90;;;8.50;99.90;;;;;;5038303;28;20428;-67
2021/11/02 01:36:34;;;;;;;6.10;2.33;;;8.50;99.90;;;;;;5055456;28;20386;-67
2021/11/02 01:39:01;;;;;;;5.93;2.60;;;8.50;99.90;;;;;;5054698;28;20470;-66
2021/11/02 01:41:28;;;;;;;7.18;2.40;;;8.50;99.90;;;;;;5054684;28;20028;-66
2021/11/02 01:43:57;;;;;;;6.95;2.22;;;8.50;99.90;;;;;;5056453;28;20044;-66
2021/11/02 01:46:29;;;;;;;7.28;2.22;;;8.50;99.90;;;;;;5056145;28;20116;-66
2021/11/02 01:48:57;;;;;;;6.15;2.30;;;8.50;99.90;;;;;;5055288;28;20094;-66
2021/11/02 01:51:24;;;;;;;5.38;2.70;;;8.50;99.90;;;;;;5054423;28;20025;-67
2021/11/02 01:53:51;;;;;;;7.70;2.28;;;8.50;99.90;;;;;;5056259;28;20546;-65
2021/11/02 01:56:18;;;;;;;10.27;2.60;;;8.50;99.90;;;;;;5055927;28;20493;-65
2021/11/02 01:58:47;;;;;;;10.25;3.38;;;8.50;99.90;;;;;;5054748;28;20017;-65
2021/11/02 02:01:29;;;;;;;7.47;2.42;;;8.50;99.90;;;;;;5056140;28;20021;-66
2021/11/02 02:04:11;;;;;;;6.38;2.30;;;8.50;99.90;;;;;;5056059;28;20063;-66
2021/11/02 02:07:04;;;;;;;9.18;2.60;;;8.50;99.90;;;;;;5055756;28;20033;-66
2021/11/02 02:09:52;;;;;;;5.93;2.40;;;8.60;99.90;;;;;;5055880;28;20040;-66
2021/11/02 02:12:28;;;;;;;8.30;2.15;;;8.60;99.90;;;;;;5055867;28;20146;-66
2021/11/02 02:15:07;;;;;;;11.63;2.67;;;8.60;99.90;;;;;;5054462;28;20035;-66
2021/11/02 02:17:42;;;;;;;10.98;2.80;;;8.60;99.90;;;;;;5055573;28;20455;-65
2021/11/02 02:20:23;;;;;;;5.43;2.28;;;8.60;99.90;;;;;;5055778;28;20030;-66
2021/11/02 02:23:28;;;;;;;11.63;2.83;;;8.70;99.90;;;;;;5056016;28;20450;-66
2021/11/02 02:26:00;;;;;;;7.03;2.72;;;8.70;99.90;;;;;;5055040;28;20024;-66
2021/11/02 02:28:32;;;;;;;6.40;3.20;;;8.80;99.90;;;;;;5054191;28;20017;-66
2021/11/02 02:31:02;;;;;;;7.85;2.78;;;8.80;99.90;;;;;;5054049;28;20021;-66
2021/11/02 02:33:30;;;;;;;7.47;2.75;;;8.80;99.90;;;;;;5054417;28;20045;-66
2021/11/02 02:35:57;;;;;;;15.38;3.00;;;8.80;99.90;;;;;;5054036;28;20021;-66
2021/11/02 02:38:39;;;;;;;11.30;3.10;;;8.80;99.90;;;;;;5055178;28;20025;-66
2021/11/02 02:41:06;;;;;;;13.82;3.25;;;8.80;99.90;;;;;;5054178;28;20035;-67
2021/11/02 02:43:36;;;;;;;13.65;2.90;;;8.80;99.90;;;;;;5055053;28;20112;-66
2021/11/02 02:46:04;;;;;;;11.07;2.85;;;8.90;99.90;;;;;;5054717;28;20459;-66
2021/11/02 02:48:32;;;;;;;9.05;2.78;;;9.00;99.90;;;;;;5055236;28;20031;-66
2021/11/02 02:50:58;;;;;;;9.50;2.90;;;9.00;99.90;;;;;;5055137;28;20021;-66
2021/11/02 02:53:26;;;;;;;9.48;3.03;;;9.00;99.90;;;;;;5054879;28;20049;-67
2021/11/02 02:55:54;;;;;;;9.38;2.85;;;9.00;99.90;;;;;;5054126;28;20074;-66
2021/11/02 02:58:21;;;;;;;16.75;3.25;;;9.00;99.90;;;;;;5055013;28;20528;-66
2021/11/02 03:00:47;;;;;;;7.90;2.70;;;9.00;99.90;;;;;;5055013;28;20047;-66
2021/11/02 03:03:13;;;;;;;10.13;2.50;;;8.90;99.90;;;;;;5054715;28;20377;-66
2021/11/02 03:05:40;;;;;;;7.05;3.00;;;9.00;99.90;;;;;;5054921;28;20512;-67
2021/11/02 03:08:06;;;;;;;8.18;2.58;;;8.90;99.90;;;;;;5054874;28;20478;-66
2021/11/02 03:10:33;;;;;;;9.57;2.90;;;8.90;99.90;;;;;;5054208;28;20048;-66
2021/11/02 03:13:05;;;;;;;10.73;2.55;;;8.90;99.90;;;;;;5054511;28;20591;-66
2021/11/02 03:15:53;;;;;;;7.20;2.43;;;8.90;99.90;;;;;;5054769;28;20029;-66
2021/11/02 03:18:39;;;;;;;12.32;2.65;;;8.90;99.90;;;;;;5054661;28;20771;-66
2021/11/02 03:49:31;;;;;;;12.75;3.40;;;8.90;99.90;;;;;;5053470;28;20390;-65
2021/11/02 03:54:27;;;;;;;10.07;3.53;;;8.90;99.90;;;;;;5054088;28;20103;-65
2021/11/02 03:54:47;;;;;;;10.38;3.03;;;8.90;99.90;;;;;;5053432;28;20049;-65
2021/11/02 03:57:55;;;;;;;10.35;3.50;;;8.90;99.90;;;;;;5054091;28;20021;-65
2021/11/02 04:26:17;;;;;;;11.27;3.90;;;8.80;99.90;;;;;;5053431;28;20017;-65
2021/11/02 04:30:59;;;;;;;14.32;4.18;;;8.70;99.90;;;;;;5052936;28;20025;-66
2021/11/02 04:42:43;;;;;;;11.50;4.03;;;8.70;99.90;;;;;;5056344;28;20033;-66
2021/11/02 04:47:28;;;;;;;10.68;4.70;;;8.70;99.90;;;;;;5055857;28;20040;-66
2021/11/02 05:07:39;;;;;;;9.38;5.32;;;8.50;99.90;;;;;;5112318;27;20430;-66
2021/11/02 05:09:31;;;;;;;12.27;5.65;;;8.50;99.90;;;;;;5111219;28;20038;-67
2021/11/02 05:46:37;;;;;;;9.50;4.57;;;8.00;99.90;;;;;;5111039;28;20440;-65
2021/11/02 05:48:36;;;;;;;7.28;3.88;;;6.50;99.90;;;;;;5110517;28;20485;-63
2021/11/02 05:51:07;;;;;;;7.13;4.03;;;6.40;99.90;;;;;;5110453;28;20031;-66
2021/11/02 05:54:03;;;;;;;10.20;4.10;;;6.40;99.90;;;;;;5110554;28;20090;-64
2021/11/02 05:56:23;;;;;;;6.03;3.72;;;6.30;99.90;;;;;;5110369;28;20115;-63
2021/11/02 05:59:00;;;;;;;7.53;3.55;;;6.20;99.90;;;;;;5110723;28;20017;-64
2021/11/02 06:01:38;;;;;;;11.13;4.18;;;6.10;99.90;;;;;;5110409;28;20020;-64
2021/11/02 06:30:05;;;;;;;6.43;4.63;;;5.70;99.90;;;;;;5070247;28;20040;-64
2021/11/02 06:32:35;;;;;;;13.07;5.97;;;5.70;99.90;;;;;;5070789;28;20067;-64
2021/11/02 06:35:39;;;;;;;10.10;5.35;;;5.60;99.90;;;;;;5070931;28;20073;-65
2021/11/02 06:38:00;;;;;;;16.08;5.85;;;5.60;99.90;;;;;;5070179;28;20029;-64
2021/11/02 06:46:10;;;;;;;11.15;6.28;;;5.70;99.90;;;;;;5070002;28;20020;-65
2021/11/02 06:48:48;;;;;;;11.68;6.40;;;5.80;99.90;;;;;;5069890;28;20482;-64
2021/11/02 06:51:38;;;;;;;15.45;7.38;;;6.00;99.90;;;;;;5070080;28;20059;-64
2021/11/02 06:55:09;;;;;;;16.73;7.47;;;6.50;99.90;;;;;;5070804;28;20055;-64
2021/11/02 06:57:49;;;;;;;18.35;7.80;;;7.00;99.90;;;;;;5069760;28;20031;-64
2021/11/02 07:17:18;;;;;;;8.65;4.88;;;;;;;;;;5110925;28;20032;-66
2021/11/02 07:22:54;;;;;;;8.23;4.72;;;;;;;;;;5110279;28;20034;-67
2021/11/02 07:25:31;;;;;;;9.15;4.85;;;12.80;99.90;;;;;;5109683;28;20358;-60
2021/11/02 08:46:38;;;;;;;8.55;5.40;;;;;;;;;;5040295;28;20030;-66
2021/11/02 08:49:05;;;;;;;6.55;4.85;;;;;;;;;;5036400;28;20031;-65
2021/11/02 08:51:31;;;;;;;7.53;5.40;;;;;;;;;;5035869;28;20029;-65
2021/11/02 08:53:57;;;;;;;6.68;5.32;;;;;;;;;;5036216;28;20075;-66
2021/11/02 08:56:23;;;;;;;10.63;6.10;;;;;;;;;;5036187;28;20414;-66
2021/11/02 08:58:52;;;;;;;8.88;6.45;;;;;;;;;;5035591;28;20371;-66
2021/11/02 09:01:18;;;;;;;8.43;5.00;;;;;;;;;;5033379;28;20518;-66
2021/11/02 09:03:47;;;;;;;10.77;5.15;;;;;;;;;;5036116;28;20013;-65
2021/11/02 09:06:15;;;;;;;11.20;5.80;;;;;;;;;;5036025;28;20022;-65
2021/11/02 09:08:43;;;;;;;8.15;5.50;;;;;;;;;;5035817;28;20041;-66
2021/11/02 09:11:12;;;;;;;9.18;4.90;;;;;;;;;;5035690;28;20033;-66
2021/11/02 09:13:38;;;;;;;10.55;4.88;;;;;;;;;;5035864;28;20394;-65
2021/11/02 09:16:05;;;;;;;7.90;4.40;;;13.60;99.90;;;;;;5037058;28;20091;-65
2021/11/02 09:18:31;;;;;;;7.43;4.28;;;13.80;99.90;;;;;;5054388;28;20024;-66
2021/11/02 09:20:57;;;;;;;5.55;3.38;;;13.60;99.90;;;;;;5044145;28;20391;-65
2021/11/02 09:23:25;;;;;;;7.80;3.80;;;13.40;99.90;;;;;;5035550;28;20041;-66
2021/11/02 09:25:51;;;;;;;8.93;3.60;;;;;;;;;;5035651;28;20080;-65
2021/11/02 09:28:18;;;;;;;10.27;4.00;;;;;;;;;;5035281;28;20047;-65
2021/11/02 09:30:44;;;;;;;10.50;4.75;;;;;;;;;;5035302;28;20037;-66
2021/11/02 09:33:10;;;;;;;7.57;4.00;;;;;;;;;;5035520;28;20039;-65
2021/11/02 09:35:36;;;;;;;8.13;4.07;;;;;;;;;;5034805;28;20403;-65
2021/11/02 09:38:22;;;;;;;4.68;3.40;;;;;;;;;;5035529;28;20049;-65
2021/11/02 09:41:28;;;;;;;11.40;3.90;;;13.50;99.90;;;;;;5035184;28;20021;-65
2021/11/02 09:44:15;;;;;;;8.32;3.47;;;;;;;;;;5034770;28;20018;-65
2021/11/02 09:47:01;;;;;;;9.90;3.17;;;;;;;;;;5034846;28;20025;-65
2021/11/02 09:49:47;;;;;;;8.35;3.65;;;;;;;;;;5034516;28;20124;-65
2021/11/02 09:52:33;;;;;;;5.97;3.17;;;;;;;;;;5015185;28;20041;-66
2021/11/02 09:55:19;;;;;;;11.18;3.00;;;;;;;;;;5013828;28;20030;-65
2021/11/02 09:58:05;;;;;;;6.07;2.72;;;;;;;;;;5014411;28;20056;-63
2021/11/02 10:00:53;;;;;;;4.43;2.42;;;;;;;;;;5023231;28;20418;-66
2021/11/02 10:03:41;;;;;;;5.63;2.40;;;;;;;;;;5034761;28;20029;-66
2021/11/02 10:06:16;;;;;;;7.50;2.88;;;;;;;;;;5034833;28;20029;-66
2021/11/02 10:08:45;;;;;;;7.18;2.20;;;;;;;;;;5034698;28;20542;-66
2021/11/02 10:11:31;;;;;;;7.47;2.03;;;;;;;;;;5034314;28;20029;-65
2021/11/02 10:14:08;;;;;;;8.05;2.00;;;;;;;;;;5033878;28;20029;-65
2021/11/02 10:16:42;;;;;;;4.82;2.25;;;;;;;;;;5032851;28;20022;-63
2021/11/02 10:19:22;;;;;;;9.02;2.03;;;;;;;;;;5033201;28;20025;-65
2021/11/02 10:22:08;;;;;;;9.25;2.47;;;;;;;;;;5034547;28;20479;-66
2021/11/02 10:24:52;;;;;;;4.53;2.13;;;;;;;;;;5034231;28;20128;-66
2021/11/02 10:27:38;;;;;;;6.60;2.17;;;;;;;;;;5034030;28;20060;-65
2021/11/02 10:30:25;;;;;;;6.07;2.10;;;;;;;;;;5034464;28;20398;-65
2021/11/02 10:32:53;;;;;;;5.97;2.40;;;;;;;;;;5034197;28;20025;-67
2021/11/02 10:35:30;;;;;;;5.88;2.28;;;;;;;;;;5033756;28;20050;-66
2021/11/02 10:38:02;;;;;;;5.93;2.20;;;;;;;;;;5014519;28;20446;-66
2021/11/02 10:40:34;;;;;;;6.85;2.15;;;;;;;;;;5025307;28;20025;-66
2021/11/02 10:43:06;;;;;;;4.28;2.10;;;;;;;;;;5034350;28;20466;-67
2021/11/02 10:45:34;;;;;;;9.23;1.85;;;;;;;;;;5033987;28;20036;-66
2021/11/02 10:48:10;;;;;;;5.57;1.98;;;;;;;;;;5034160;28;20083;-66
2021/11/02 10:50:37;;;;;;;8.63;1.98;;;;;;;;;;5033238;28;20029;-64
2021/11/02 10:53:04;;;;;;;7.20;2.10;;;;;;;;;;5033990;28;20096;-66
2021/11/02 10:55:50;;;;;;;7.88;1.85;;;;;;;;;;5033360;28;20030;-65
2021/11/02 10:58:45;;;;;;;6.13;2.00;;;13.70;99.90;;;;;;5014517;28;20034;-66
2021/11/02 11:01:12;;;;;;;3.83;1.60;;;13.70;99.90;;;;;;5027328;28;20112;-66
2021/11/02 11:03:40;;;;;;;6.72;2.03;;;14.10;99.90;;;;;;5034203;28;20025;-66
2021/11/02 11:06:09;;;;;;;3.53;1.27;;;14.00;99.90;;;;;;5033642;28;20494;-66
2021/11/02 11:08:36;;;;;;;7.15;2.00;;;;;;;;;;5031795;28;20072;-65
2021/11/02 11:11:10;;;;;;;3.75;1.73;;;;;;;;;;5033831;28;20093;-65
2021/11/02 11:13:38;;;;;;;3.83;1.55;;;;;;;;;;5033732;28;20030;-65
2021/11/02 11:16:07;;;;;;;12.02;2.10;;;;;;;;;;5034100;28;20025;-65
2021/11/02 11:18:36;;;;;;;6.72;1.60;;;;;;;;;;5032520;28;20048;-66
2021/11/02 11:21:03;;;;;;;3.72;1.80;;;;;;;;;;5033284;28;20090;-65
2021/11/02 11:23:31;;;;;;;4.75;1.40;;;;;;;;;;5033912;28;20375;-65
2021/11/02 11:26:00;;;;;;;10.02;1.70;;;;;;;;;;5033155;28;20021;-65
2021/11/02 11:28:27;;;;;;;9.75;4.55;;;;;;;;;;5031942;28;20034;-65
2021/11/02 11:30:55;;;;;;;4.13;1.60;;;;;;;;;;5033495;28;20181;-66
2021/11/02 11:33:21;;;;;;;4.47;1.50;;;;;;;;;;5032877;28;20435;-66
2021/11/02 11:35:49;;;;;;;6.10;1.67;;;;;;;;;;5032828;28;20046;-65
2021/11/02 11:38:15;;;;;;;5.65;1.30;;;;;;;;;;5032686;28;20040;-65
2021/11/02 11:40:42;;;;;;;7.03;1.48;;;;;;;;;;5031912;28;20018;-65
2021/11/02 11:43:10;;;;;;;3.85;1.23;;;;;;;;;;5032626;28;20375;-66
2021/11/02 11:45:37;;;;;;;3.35;1.17;;;;;;;;;;5032659;28;20072;-65
2021/11/02 11:48:05;;;;;;;8.55;2.13;;;;;;;;;;5032359;28;20387;-66
2021/11/02 11:50:31;;;;;;;3.42;1.25;;;;;;;;;;5031585;28;20495;-65
2021/11/02 11:53:00;;;;;;;4.07;1.20;;;;;;;;;;5033372;28;20387;-65
2021/11/02 11:55:28;;;;;;;3.00;1.05;;;;;;;;;;5032706;28;20491;-64
2021/11/02 11:58:02;;;;;;;4.15;1.55;;;;;;;;;;5033313;28;20028;-64
2021/11/02 12:00:28;;;;;;;7.18;1.80;;;;;;;;;;5031357;28;20092;-64
2021/11/02 12:03:05;;;;;;;5.50;1.27;;;;;;;;;;5032426;28;20028;-64
2021/11/02 12:05:32;;;;;;;4.93;1.40;;;;;;;;;;5031930;28;20021;-65
2021/11/02 12:08:07;;;;;;;4.30;1.17;;;;;;;;;;5014306;28;20060;-66
2021/11/02 12:10:34;;;;;;;7.25;2.03;;;;;;;;;;5032530;28;20035;-64
2021/11/02 12:13:03;;;;;;;3.15;1.70;;;;;;;;;;5031786;28;20061;-66
2021/11/02 12:15:48;;;;;;;6.05;1.38;;;;;;;;;;5031786;28;20025;-64
2021/11/02 12:18:17;;;;;;;3.70;1.25;;;;;;;;;;5033216;28;20026;-64
2021/11/02 12:20:43;;;;;;;8.30;1.60;;;;;;;;;;5033117;28;20064;-64
2021/11/02 12:23:16;;;;;;;6.60;1.35;;;;;;;;;;5036694;28;20029;-66
2021/11/02 12:25:53;;;;;;;7.00;1.65;;;;;;;;;;5036911;28;20112;-65
2021/11/02 12:28:36;;;;;;;5.65;1.70;;;;;;;;;;5036619;28;20022;-65
2021/11/02 12:31:04;;;;;;;4.40;1.42;;;;;;;;;;5036446;28;20112;-66
2021/11/02 12:33:31;;;;;;;6.22;2.05;;;;;;;;;;5035218;28;20471;-66
2021/11/02 12:35:58;;;;;;;9.65;1.50;;;;;;;;;;5034856;28;20048;-66
2021/11/02 12:38:34;;;;;;;5.43;1.25;;;;;;;;;;5036607;28;20060;-67
2021/11/02 12:41:00;;;;;;;4.68;1.17;;;;;;;;;;5036654;28;20056;-66
2021/11/02 12:43:27;;;;;;;6.20;1.55;;;;;;;;;;5036439;28;20033;-67
2021/11/02 12:45:55;;;;;;;5.03;1.25;;;;;;;;;;5036629;28;20459;-66
2021/11/02 12:48:21;;;;;;;6.28;1.50;;;;;;;;;;5036238;28;20025;-68
2021/11/02 12:50:48;;;;;;;4.30;1.40;;;;;;;;;;5036376;28;20021;-66
2021/11/02 12:53:15;;;;;;;4.80;1.85;;;;;;;;;;5036512;28;20025;-66
2021/11/02 12:55:41;;;;;;;6.93;1.70;;;;;;;;;;5036090;28;20029;-67
2021/11/02 12:58:10;;;;;;;3.95;1.50;;;;;;;;;;5035978;28;20076;-67
2021/11/02 13:00:51;;;;;;;5.95;1.45;;;;;;;;;;5036359;28;20030;-65
2021/11/02 13:03:20;;;;;;;7.78;1.50;;;;;;;;;;5036204;28;20022;-66
2021/11/02 13:05:54;;;;;;;6.07;1.55;;;;;;;;;;5035840;28;20029;-66
2021/11/02 13:08:26;;;;;;;4.53;1.30;;;;;;;;;;5035075;28;20045;-65
2021/11/02 13:10:52;;;;;;;5.32;1.48;;;;;;;;;;5036047;28;20017;-65
2021/11/02 13:13:19;;;;;;;3.83;1.40;;;;;;;;;;5035709;28;20390;-67
2021/11/02 13:15:50;;;;;;;4.72;1.35;;;;;;;;;;5035810;28;20028;-62
2021/11/02 13:18:31;;;;;;;2.65;1.20;;;;;;;;;;5036289;28;20018;-65
2021/11/02 13:21:17;;;;;;;4.95;1.60;;;;;;;;;;5035130;28;20104;-62
2021/11/02 13:23:45;;;;;;;3.30;1.40;;;;;;;;;;5035413;28;20021;-62
2021/11/02 13:26:15;;;;;;;5.50;1.55;;;;;;;;;;5035883;28;20051;-60
2021/11/02 13:28:41;;;;;;;8.45;1.77;;;;;;;;;;5034717;28;20392;-65
2021/11/02 13:31:07;;;;;;;7.68;1.98;;;;;;;;;;5035458;28;20037;-63
2021/11/02 13:33:33;;;;;;;5.50;1.30;;;;;;;;;;5034338;28;20021;-66
2021/11/02 13:36:01;;;;;;;3.78;1.80;;;;;;;;;;5034149;28;20383;-66
2021/11/02 13:38:31;;;;;;;6.65;1.95;;;;;;;;;;5035623;28;20493;-66
2021/11/02 13:41:01;;;;;;;6.10;1.50;;;;;;;;;;5034928;28;20519;-65
2021/11/02 13:43:28;;;;;;;4.07;1.23;;;;;;;;;;5035206;28;20049;-65
2021/11/02 13:45:55;;;;;;;5.05;1.30;;;;;;;;;;5034311;28;20033;-66
2021/11/02 13:48:21;;;;;;;4.32;1.38;;;;;;;;;;5035634;28;20036;-64
2021/11/02 13:50:47;;;;;;;6.03;1.63;;;;;;;;;;5034264;28;20075;-67
2021/11/02 13:53:14;;;;;;;5.22;1.40;;;;;;;;;;5035035;28;20040;-66
2021/11/02 13:55:39;;;;;;;3.65;1.60;;;;;;;;;;5035059;28;20037;-67
2021/11/02 13:58:05;;;;;;;6.25;1.55;;;;;;;;;;5035349;28;20026;-64
2021/11/02 14:00:32;;;;;;;3.58;1.38;;;;;;;;;;5034954;28;20463;-65
2021/11/02 14:03:00;;;;;;;6.80;1.40;;;;;;;;;;5034291;28;20086;-64
2021/11/02 14:05:26;;;;;;;5.35;1.40;;;;;;;;;;5034299;28;20036;-65
2021/11/02 14:07:52;;;;;;;4.50;1.25;;;;;;;;;;5034388;28;20037;-64
2021/11/02 14:10:19;;;;;;;5.20;2.00;;;;;;;;;;5034487;28;20030;-66
2021/11/02 14:12:52;;;;;;;4.38;1.30;;;;;;;;;;5031672;28;20017;-66
2021/11/02 14:15:19;;;;;;;5.63;1.60;;;;;;;;;;5049098;28;20029;-65
2021/11/02 14:17:47;;;;;;;2.80;1.40;;;;;;;;;;5033230;28;20013;-66
2021/11/02 14:20:33;;;;;;;5.65;1.40;;;;;;;;;;5033447;28;20014;-66
2021/11/02 14:22:59;;;;;;;3.63;1.30;;;;;;;;;;5015088;28;20422;-66
2021/11/02 14:25:34;;;;;;;2.92;1.30;;;;;;;;;;5041776;28;20037;-66
2021/11/02 14:28:00;;;;;;;3.95;1.50;;;;;;;;;;5017808;28;20083;-63
2021/11/02 14:33:11;;;;;;;4.18;1.40;;;;;;;;;;5070530;28;20464;-71
2021/11/02 14:35:54;;;;;;;2.85;1.15;;;;;;;;;;5070537;28;20405;-69
2021/11/02 14:38:22;;;;;;;3.15;1.38;;;;;;;;;;5065673;28;20033;-70
2021/11/02 14:40:50;;;;;;;4.55;1.70;;;;;;;;;;5051014;28;20060;-70
2021/11/02 14:45:57;;;;;;;3.72;1.33;;;;;;;;;;5090379;28;20179;-70
2021/11/02 14:51:21;;;;;;;4.20;1.50;;;;;;;;;;5110108;27;20388;-70
2021/11/02 14:53:48;;;;;;;4.07;1.10;;;;;;;;;;5070887;28;20112;-70
2021/11/02 14:56:27;;;;;;;3.60;1.40;;;;;;;;;;5075072;28;20028;-70
2021/11/02 14:58:57;;;;;;;2.95;1.15;;;;;;;;;;5090536;28;20027;-69
2021/11/02 15:01:43;;;;;;;2.88;1.20;;;;;;;;;;5092981;28;20016;-69
2021/11/02 15:04:12;;;;;;;1.92;1.00;;;;;;;;;;5111184;28;20028;-70
2021/11/02 15:06:40;;;;;;;3.95;1.30;;;;;;;;;;5109617;28;20023;-68
2021/11/02 15:09:07;;;;;;;2.20;1.10;;;;;;;;;;5099745;28;20042;-70
2021/11/02 15:11:33;;;;;;;3.63;1.20;;;;;;;;;;5090070;28;20017;-70
2021/11/02 15:14:00;;;;;;;4.20;1.10;;;;;;;;;;5089517;28;20028;-70
2021/11/02 15:16:27;;;;;;;2.97;1.55;;;;;;;;;;5095114;28;20016;-71
2021/11/02 15:19:01;;;;;;;4.88;1.50;;;;;;;;;;5095707;28;20028;-70
2021/11/02 15:21:28;;;;;;;4.28;1.83;;;;;;;;;;5102878;28;20365;-70
2021/11/02 15:23:54;;;;;;;2.65;1.55;;;;;;;;;;5108037;28;20093;-69
2021/11/02 15:26:20;;;;;;;6.00;1.75;;;;;;;;;;5089392;28;20028;-69
2021/11/02 15:28:48;;;;;;;2.22;1.58;;;;;;;;;;5090855;28;20013;-69
2021/11/02 15:31:14;;;;;;;3.30;1.67;;;;;;;;;;5070199;28;20024;-71
2021/11/02 15:33:42;;;;;;;3.03;2.25;;;;;;;;;;5081361;28;20013;-69
2021/11/02 15:36:11;;;;;;;4.10;1.90;;;;;;;;;;5090843;28;20024;-70
2021/11/02 15:38:37;;;;;;;3.30;1.95;;;;;;;;;;5103422;28;20033;-71
2021/11/02 15:41:16;;;;;;;4.10;1.67;;;;;;;;;;5107705;28;20093;-70
2021/11/02 15:43:50;;;;;;;2.65;1.63;;;;;;;;;;5107785;28;20358;-70
2021/11/02 15:46:20;;;;;;;3.03;1.73;;;;;;;;;;5110456;28;20034;-70
2021/11/02 15:48:46;;;;;;;2.60;1.48;;;;;;;;;;5099087;28;20409;-68
2021/11/02 15:51:15;;;;;;;3.35;1.50;;;;;;;;;;5106603;28;20059;-67
2021/11/02 15:53:42;;;;;;;4.10;2.20;;;;;;;;;;5108438;28;20373;-67
2021/11/02 15:56:08;;;;;;;5.07;2.30;;;;;;;;;;5104276;28;20099;-70
2021/11/02 15:58:34;;;;;;;5.32;2.08;;;;;;;;;;5089494;28;20099;-69
2021/11/02 16:01:00;;;;;;;3.35;1.65;;;;;;;;;;5085540;28;20046;-71
2021/11/02 16:03:33;;;;;;;4.40;1.85;;;;;;;;;;5076780;28;20025;-68
2021/11/02 16:05:59;;;;;;;;;;;;;;;;;;5093073;28;20453;-68
2021/11/02 16:08:25;;;;;;;3.42;1.83;;;;;;;;;;5095965;28;19915;-68
2021/11/02 16:10:52;;;;;;;4.03;1.85;;;;;;;;;;5084464;28;20487;-68
2021/11/02 16:13:23;;;;;;;2.45;1.70;;;;;;;;;;5096277;28;20016;-69
2021/11/02 16:15:49;;;;;;;6.32;1.92;;;;;;;;;;5093975;28;20036;-68
2021/11/02 16:18:18;;;;;;;21.58;9.55;;;;;;;;;;5087384;28;20016;-68
2021/11/02 16:20:44;;;;;;;6.95;2.47;;;;;;;;;;5074739;28;20032;-69
2021/11/02 16:23:12;;;;;;;4.47;2.55;;;;;;;;;;5089701;28;20034;-69
2021/11/02 16:25:43;;;;;;;6.00;2.22;;;;;;;;;;5075941;28;20024;-69
2021/11/02 16:28:14;;;;;;;4.55;1.90;;;;;;;;;;5081732;28;20039;-69
2021/11/02 16:30:43;;;;;;;6.93;2.28;;;;;;;;;;5075719;28;20449;-69
2021/11/02 16:33:09;;;;;;;4.85;2.53;;;;;;;;;;5075384;28;20028;-69
2021/11/02 16:35:37;;;;;;;4.95;2.38;;;;;;;;;;5074400;28;20112;-69
2021/11/02 16:41:00;;;;;;;6.78;2.95;;;;;;;;;;5071008;28;20880;-69
2021/11/02 16:43:46;;;;;;;11.13;3.22;;;;;;;;;;5069219;28;20025;-69
2021/11/02 16:46:21;;;;;;;3.65;2.38;;;;;;;;;;5050425;28;20083;-68
2021/11/02 16:48:47;;;;;;;6.78;2.45;;;;;;;;;;5059457;28;20021;-69
2021/11/02 16:51:14;;;;;;;6.05;2.20;;;;;;;;;;5070762;28;20551;-69
2021/11/02 16:53:40;;;;;;;6.22;2.22;;;;;;;;;;5070828;28;20031;-69
2021/11/02 16:56:15;;;;;;;4.15;2.33;;;;;;;;;;5070771;28;20025;-69
2021/11/02 16:58:46;;;;;;;5.65;2.28;;;;;;;;;;5070322;28;20012;-69
2021/11/02 17:01:21;;;;;;;5.50;2.90;;;;;;;;;;5070572;28;20029;-69
2021/11/02 17:03:47;;;;;;;6.07;2.50;;;;;;;;;;5070268;28;20386;-68
2021/11/02 17:06:15;;;;;;;4.25;2.47;;;;;;;;;;5070486;28;20043;-68
2021/11/02 17:08:50;;;;;;;3.50;2.10;;;;;;;;;;5070161;28;20451;-69
2021/11/02 17:11:20;;;;;;;4.72;2.33;;;;;;;;;;5070508;28;20029;-68
2021/11/02 17:13:47;;;;;;;4.85;2.65;;;;;;;;;;5070479;28;20082;-70
2021/11/02 17:16:15;;;;;;;2.55;1.98;;;;;;;;;;5070217;28;20021;-70
2021/11/02 17:21:23;;;;;;;7.65;2.33;;;;;;;;;;5112182;27;20355;-70
2021/11/02 17:23:49;;;;;;;2.85;2.25;;;;;;;;;;5111615;28;20530;-71
2021/11/02 17:26:16;;;;;;;4.88;2.28;;;;;;;;;;5110234;28;20461;-70
2021/11/02 17:28:45;;;;;;;4.65;2.15;;;;;;;;;;5109867;28;20012;-70
2021/11/02 17:31:11;;;;;;;3.78;2.30;;;;;;;;;;5111537;28;20020;-69
2021/11/02 17:33:38;;;;;;;6.88;2.92;;;;;;;;;;5110322;28;20035;-70
2021/11/02 17:36:06;;;;;;;7.63;3.85;;;;;;;;;;5111263;28;20028;-70
2021/11/02 17:38:33;;;;;;;7.78;3.60;;;;;;;;;;5110991;28;20042;-71
2021/11/02 17:41:02;;;;;;;6.03;3.20;;;;;;;;;;5111288;28;20537;-70
2021/11/02 17:43:28;;;;;;;7.57;3.00;;;;;;;;;;5111328;28;20381;-70
2021/11/02 17:45:54;;;;;;;3.72;3.25;;;;;;;;;;5110268;28;20019;-70
2021/11/02 17:48:20;;;;;;;5.75;4.18;;;;;;;;;;5110513;28;20098;-70
2021/11/02 17:50:47;;;;;;;8.40;3.38;;;;;;;;;;5110498;28;20028;-68
2021/11/02 17:53:13;;;;;;;7.78;4.00;;;;;;;;;;5109434;28;20034;-70
2021/11/02 17:55:39;;;;;;;4.85;3.33;;;;;;;;;;5110944;28;20096;-70
2021/11/02 17:58:05;;;;;;;4.38;3.20;;;;;;;;;;5111111;28;20098;-70
2021/11/02 18:00:31;;;;;;;8.48;3.50;;;;;;;;;;5110970;28;20130;-70
2021/11/02 18:02:58;;;;;;;9.43;3.80;;;;;;;;;;5110990;28;20035;-70
2021/11/02 18:05:25;;;;;;;7.18;3.15;;;;;;;;;;5109694;28;20115;-70
2021/11/02 18:07:52;;;;;;;6.03;3.28;;;;;;;;;;5110975;28;20028;-70
2021/11/02 18:10:18;;;;;;;6.78;3.45;;;;;;;;;;5110899;28;20039;-70
2021/11/02 18:12:44;;;;;;;5.13;3.08;;;;;;;;;;5109664;28;20031;-70
2021/11/02 18:15:10;;;;;;;4.07;3.30;;;;;;;;;;5110859;28;20052;-70
2021/11/02 18:17:38;;;;;;;4.88;2.63;;;;;;;;;;5110677;28;20020;-70
2021/11/02 18:20:06;;;;;;;5.85;3.35;;;;;;;;;;5110213;28;20048;-70
2021/11/02 18:22:32;;;;;;;6.72;2.90;;;;;;;;;;5110629;28;20150;-70
2021/11/02 18:24:58;;;;;;;6.78;2.90;;;;;;;;;;5110914;28;20020;-70
2021/11/02 18:27:24;;;;;;;5.57;2.97;;;;;;;;;;5110545;28;20024;-70
2021/11/02 18:29:50;;;;;;;4.13;2.80;;;;;;;;;;5110491;28;20102;-70
2021/11/02 18:32:17;;;;;;;3.58;2.72;;;;;;;;;;5099309;28;20099;-70
2021/11/02 18:34:44;;;;;;;4.78;2.60;;;;;;;;;;5096784;28;20058;-70
2021/11/02 18:37:10;;;;;;;3.80;2.60;;;;;;;;;;5096754;28;20107;-70
2021/11/02 18:39:43;;;;;;;6.65;2.42;;;;;;;;;;5096586;28;20096;-70
2021/11/02 18:42:09;;;;;;;5.20;2.90;;;;;;;;;;5096694;28;20438;-70
2021/11/02 18:44:35;;;;;;;3.28;2.47;;;;;;;;;;5096925;28;20024;-70